Wilkinson, Indiana
Current Conditions -  °F | °C
As of 3:55 PM on Thursday 27 Nov 2014 (Local Time) from KMQJ Reporting Station
Overcast Overcast  
Wind Chill: 16°   Ceiling: 2100
Heat Index: 28°   Visibility: 10mi
Dew Point: 14°   Wind: 17mph
Humidity: 55%   Direction: 310°NW
Pressure: 30.33"   Gusts: 24mph
Location:  39.89°N, 85.61°W
Report Text: KMQJ 272055Z AUTO 31015G21KT 10SM OVC021 M02/M10 A3033 RMK AO1
Loading
Personal Weather Stations






























Interactive Weather Map New forecast layout! Learn more

10-Day Weather Forecast

Advertisements
Track Severe Weather on mobile